Time;durP1;ratioP1;P1;durP2;ratioP2;P2;SDS_P1;SDS_P2;PMS_P1;PMS_P2;Temp;Humidity;BMP_temperature;BMP_pressure;BME280_temperature;BME280_humidity;BME280_pressure;Samples;Min_cycle;Max_cycle;Signal;HPM_P1;HPM_P2
2022/02/18 00:01:45;;;;;;;0.75;0.50;;;5.40;99.90;;;;;;5027018;28;20021;-71
2022/02/18 00:04:10;;;;;;;3.58;2.13;;;5.30;99.90;;;;;;5027349;28;20021;-70
2022/02/18 00:06:36;;;;;;;11.68;1.48;;;5.30;99.90;;;;;;5026722;28;20049;-70
2022/02/18 00:09:03;;;;;;;4.63;0.88;;;5.30;99.90;;;;;;5026528;28;20030;-72
2022/02/18 00:11:30;;;;;;;0.98;0.65;;;5.30;99.90;;;;;;5027785;28;20083;-69
2022/02/18 00:13:57;;;;;;;8.30;0.90;;;5.40;99.90;;;;;;5024860;28;20033;-69
2022/02/18 00:16:22;;;;;;;9.55;1.60;;;5.40;99.90;;;;;;5025463;28;20026;-69
2022/02/18 00:18:48;;;;;;;2.88;0.50;;;5.30;99.90;;;;;;5028066;28;20049;-70
2022/02/18 00:21:13;;;;;;;5.53;2.00;;;5.20;99.90;;;;;;5035069;28;20026;-69
2022/02/18 00:23:39;;;;;;;10.75;1.58;;;5.20;99.90;;;;;;5027116;28;20061;-70
2022/02/18 00:26:05;;;;;;;6.53;1.15;;;5.20;99.90;;;;;;5026955;28;20085;-70
2022/02/18 00:28:31;;;;;;;6.72;1.20;;;5.20;99.90;;;;;;5026498;28;20530;-68
2022/02/18 00:30:57;;;;;;;3.08;0.60;;;5.20;99.90;;;;;;5025404;28;20034;-70
2022/02/18 00:33:23;;;;;;;12.93;1.65;;;5.20;99.90;;;;;;5026805;28;20018;-69
2022/02/18 00:35:49;;;;;;;8.55;1.17;;;5.10;99.90;;;;;;5025933;28;20030;-69
2022/02/18 00:38:15;;;;;;;6.30;0.60;;;5.20;99.90;;;;;;5026313;28;20041;-71
2022/02/18 00:40:45;;;;;;;10.73;1.92;;;5.10;99.90;;;;;;5026433;28;20056;-69
2022/02/18 00:43:11;;;;;;;3.65;1.58;;;5.10;99.90;;;;;;5026297;28;20053;-68
2022/02/18 00:45:37;;;;;;;9.85;1.23;;;5.10;99.90;;;;;;5026023;28;20030;-69
2022/02/18 00:48:03;;;;;;;12.50;1.00;;;5.00;99.90;;;;;;5025975;28;20037;-68
2022/02/18 00:50:29;;;;;;;13.00;1.38;;;5.10;99.90;;;;;;5024996;28;20394;-71
2022/02/18 00:52:54;;;;;;;3.90;0.98;;;5.10;99.90;;;;;;5025920;28;20061;-70
2022/02/18 00:55:20;;;;;;;12.52;1.35;;;5.00;99.90;;;;;;5025878;28;20041;-71
2022/02/18 00:57:46;;;;;;;3.88;1.20;;;5.10;99.90;;;;;;5025562;28;20041;-69
2022/02/18 01:00:16;;;;;;;4.93;1.23;;;5.00;99.90;;;;;;5025969;28;20033;-70
2022/02/18 01:02:43;;;;;;;10.77;1.73;;;5.00;99.90;;;;;;5025961;28;20033;-70
2022/02/18 01:05:10;;;;;;;6.78;1.40;;;5.00;99.90;;;;;;5024429;28;20037;-72
2022/02/18 01:07:36;;;;;;;5.10;1.15;;;5.00;99.90;;;;;;5026187;28;20034;-69
2022/02/18 01:10:03;;;;;;;2.63;0.85;;;5.00;99.90;;;;;;5025627;28;20030;-68
2022/02/18 01:12:29;;;;;;;10.68;1.27;;;5.00;99.90;;;;;;5025752;28;20061;-69
2022/02/18 01:14:54;;;;;;;4.47;1.33;;;5.00;99.90;;;;;;5025548;28;20034;-68
2022/02/18 01:17:20;;;;;;;7.53;2.00;;;5.00;99.90;;;;;;5025418;28;20033;-69
2022/02/18 01:19:46;;;;;;;9.77;0.80;;;5.00;99.90;;;;;;5025766;28;20032;-69
2022/02/18 01:22:12;;;;;;;1.13;0.75;;;5.10;99.90;;;;;;5025851;28;20097;-67
2022/02/18 01:24:38;;;;;;;6.35;1.23;;;5.00;99.90;;;;;;5025156;28;20073;-70
2022/02/18 01:27:04;;;;;;;14.48;1.27;;;5.00;99.90;;;;;;5025839;28;20101;-70
2022/02/18 01:29:30;;;;;;;6.60;1.23;;;5.00;99.90;;;;;;5025350;28;20763;-68
2022/02/18 01:31:56;;;;;;;3.97;1.13;;;5.00;99.90;;;;;;5025058;28;20494;-68
2022/02/18 01:34:22;;;;;;;20.55;1.58;;;5.00;99.90;;;;;;5025534;28;20026;-69
2022/02/18 01:36:47;;;;;;;1.80;0.73;;;5.00;99.90;;;;;;5025084;28;20025;-67
2022/02/18 01:39:13;;;;;;;0.68;0.55;;;5.10;99.90;;;;;;5025244;28;20045;-70
2022/02/18 01:41:38;;;;;;;10.07;1.30;;;5.00;99.90;;;;;;5025468;28;20029;-69
2022/02/18 01:44:05;;;;;;;10.23;0.95;;;5.00;99.90;;;;;;5023828;28;20101;-70
2022/02/18 01:46:31;;;;;;;2.40;1.00;;;5.00;99.90;;;;;;5024081;28;20065;-69
2022/02/18 01:48:57;;;;;;;2.88;1.30;;;5.00;99.90;;;;;;5025455;28;20022;-69
2022/02/18 01:51:24;;;;;;;3.97;1.83;;;5.10;99.90;;;;;;5024637;28;20033;-68
2022/02/18 01:53:52;;;;;;;1.08;0.73;;;5.00;99.90;;;;;;5026446;28;20033;-69
2022/02/18 01:56:20;;;;;;;5.70;1.05;;;5.10;99.90;;;;;;5038116;28;20041;-69
2022/02/18 01:58:46;;;;;;;7.88;1.38;;;5.10;99.90;;;;;;5031266;28;20096;-69
2022/02/18 02:01:12;;;;;;;1.33;0.90;;;5.10;99.90;;;;;;5024546;28;20069;-70
2022/02/18 02:03:40;;;;;;;2.33;0.70;;;5.10;99.90;;;;;;5024944;28;20026;-69
2022/02/18 02:06:06;;;;;;;4.28;1.35;;;5.10;99.90;;;;;;5024363;28;20077;-68
2022/02/18 02:08:35;;;;;;;8.77;0.63;;;5.10;99.90;;;;;;5023001;28;20030;-69
2022/02/18 02:11:01;;;;;;;1.75;0.82;;;5.10;99.90;;;;;;5023415;28;20018;-70
2022/02/18 02:13:35;;;;;;;6.65;1.73;;;5.20;99.90;;;;;;5035536;28;20021;-68
2022/02/18 02:16:02;;;;;;;9.38;1.38;;;5.10;99.90;;;;;;5042296;28;20056;-70
2022/02/18 02:18:28;;;;;;;9.60;1.95;;;5.10;99.90;;;;;;5040955;28;20093;-68
2022/02/18 02:20:54;;;;;;;5.70;1.20;;;5.10;99.90;;;;;;5044145;28;20029;-69
2022/02/18 02:23:20;;;;;;;16.35;1.52;;;5.10;99.90;;;;;;5044398;28;20034;-69
2022/02/18 02:25:46;;;;;;;4.95;0.95;;;5.10;99.90;;;;;;5041799;28;20081;-69
2022/02/18 02:28:12;;;;;;;4.15;1.27;;;5.10;99.90;;;;;;5025470;28;20057;-68
2022/02/18 02:30:38;;;;;;;9.90;1.73;;;5.00;99.90;;;;;;5024992;28;20029;-69
2022/02/18 02:33:03;;;;;;;5.72;0.85;;;5.10;99.90;;;;;;5022960;28;20425;-70
2022/02/18 02:35:29;;;;;;;1.70;0.65;;;5.10;99.90;;;;;;5024256;28;20498;-70
2022/02/18 02:37:54;;;;;;;6.22;1.13;;;5.10;99.90;;;;;;5024358;28;20032;-68
2022/02/18 02:40:20;;;;;;;4.88;0.68;;;5.10;99.90;;;;;;5024448;28;20061;-68
2022/02/18 02:42:46;;;;;;;5.63;1.30;;;5.10;99.90;;;;;;5024586;28;20030;-69
2022/02/18 02:45:14;;;;;;;8.90;1.25;;;5.10;99.90;;;;;;5024251;28;20038;-70
2022/02/18 02:47:45;;;;;;;8.55;1.52;;;5.00;99.90;;;;;;5024370;28;20030;-69
2022/02/18 02:50:16;;;;;;;6.50;0.70;;;5.00;99.90;;;;;;5024074;28;20033;-69
2022/02/18 02:52:42;;;;;;;4.45;0.98;;;5.00;99.90;;;;;;5024610;28;20038;-70
2022/02/18 02:55:10;;;;;;;6.53;1.15;;;5.00;99.90;;;;;;5023901;28;20455;-68
2022/02/18 02:57:46;;;;;;;1.90;0.88;;;5.00;99.90;;;;;;5024425;28;20030;-71
2022/02/18 03:00:12;;;;;;;6.05;3.22;;;5.00;99.90;;;;;;5028608;28;20140;-68
2022/02/18 03:02:39;;;;;;;13.30;2.05;;;5.00;99.90;;;;;;5027509;28;20033;-69
2022/02/18 03:05:06;;;;;;;6.20;1.35;;;5.00;99.90;;;;;;5027901;28;20042;-68
2022/02/18 03:07:33;;;;;;;6.00;0.93;;;5.00;99.90;;;;;;5028019;28;20386;-69
2022/02/18 03:09:58;;;;;;;7.07;1.02;;;5.00;99.90;;;;;;5028368;28;20025;-69
2022/02/18 03:12:24;;;;;;;6.85;1.33;;;5.00;99.90;;;;;;5027952;28;20054;-69
2022/02/18 03:14:50;;;;;;;6.30;1.75;;;4.90;99.90;;;;;;5028167;28;20026;-69
2022/02/18 03:17:16;;;;;;;4.65;1.42;;;4.90;99.90;;;;;;5027812;28;20085;-71
2022/02/18 03:19:42;;;;;;;7.78;1.17;;;4.90;99.90;;;;;;5027892;28;20646;-69
2022/02/18 03:22:08;;;;;;;2.28;0.70;;;4.90;99.90;;;;;;5028103;28;20090;-69
2022/02/18 03:24:34;;;;;;;9.95;1.60;;;5.00;99.90;;;;;;5027337;28;20496;-68
2022/02/18 03:27:00;;;;;;;6.13;1.52;;;4.90;99.90;;;;;;5027922;28;20034;-69
2022/02/18 03:29:26;;;;;;;4.82;1.58;;;4.80;99.90;;;;;;5027544;28;20029;-69
2022/02/18 03:31:53;;;;;;;8.05;0.77;;;4.90;99.90;;;;;;5027295;28;20022;-69
2022/02/18 03:34:19;;;;;;;2.85;1.60;;;4.80;99.90;;;;;;5027873;28;20038;-70
2022/02/18 03:36:45;;;;;;;20.27;1.55;;;4.90;99.90;;;;;;5027241;28;20080;-70
2022/02/18 03:39:11;;;;;;;3.65;1.15;;;4.80;99.90;;;;;;5027763;28;20029;-71
2022/02/18 03:41:37;;;;;;;8.00;0.80;;;4.80;99.90;;;;;;5028002;28;20037;-69
2022/02/18 03:44:06;;;;;;;1.65;0.47;;;4.80;99.90;;;;;;5027195;28;20108;-69
2022/02/18 03:46:32;;;;;;;5.05;1.20;;;4.80;99.90;;;;;;5027358;28;20049;-69
2022/02/18 03:48:58;;;;;;;4.72;1.48;;;4.80;99.90;;;;;;5027383;28;20096;-70
2022/02/18 03:51:24;;;;;;;7.18;1.65;;;4.80;99.90;;;;;;5027260;28;20086;-69
2022/02/18 03:53:49;;;;;;;10.20;1.90;;;4.80;99.90;;;;;;5026833;28;20078;-68
2022/02/18 03:56:16;;;;;;;4.82;1.48;;;4.80;99.90;;;;;;5027299;28;20485;-71
2022/02/18 03:58:42;;;;;;;6.05;0.63;;;4.80;99.90;;;;;;5027107;28;20068;-71
2022/02/18 04:01:07;;;;;;;4.93;1.48;;;5.00;99.90;;;;;;5027504;28;20030;-69
2022/02/18 04:03:33;;;;;;;7.10;1.95;;;4.80;99.90;;;;;;5026627;28;20030;-69
2022/02/18 04:05:59;;;;;;;13.75;1.67;;;4.90;99.90;;;;;;5026663;28;20052;-70
2022/02/18 04:08:25;;;;;;;3.65;1.83;;;4.90;99.90;;;;;;5027049;28;20057;-68
2022/02/18 04:10:50;;;;;;;1.58;0.85;;;4.90;99.90;;;;;;5026384;28;20049;-70
2022/02/18 04:13:16;;;;;;;2.90;1.55;;;4.80;99.90;;;;;;5026854;28;20046;-68
2022/02/18 04:15:41;;;;;;;6.95;1.70;;;4.90;99.90;;;;;;5026734;28;20054;-70
2022/02/18 04:18:07;;;;;;;7.13;1.77;;;4.90;99.90;;;;;;5041561;28;20038;-69
2022/02/18 04:20:33;;;;;;;5.80;1.67;;;5.00;99.90;;;;;;5027170;28;20038;-69
2022/02/18 04:22:59;;;;;;;15.93;1.67;;;4.90;99.90;;;;;;5029943;28;20032;-70
2022/02/18 04:25:24;;;;;;;5.18;0.70;;;4.90;99.90;;;;;;5025282;28;20112;-69
2022/02/18 04:27:54;;;;;;;4.75;0.75;;;4.90;99.90;;;;;;5026208;28;20026;-70
2022/02/18 04:30:20;;;;;;;11.13;2.35;;;5.00;99.90;;;;;;5026652;28;20026;-69
2022/02/18 04:32:46;;;;;;;10.25;1.65;;;4.80;99.90;;;;;;5026691;28;20057;-69
2022/02/18 04:35:12;;;;;;;8.68;0.95;;;4.90;99.90;;;;;;5026191;28;20054;-70
2022/02/18 04:37:38;;;;;;;2.85;1.55;;;4.90;99.90;;;;;;5026763;28;20034;-69
2022/02/18 04:40:05;;;;;;;11.90;1.88;;;4.90;99.90;;;;;;5026758;28;20145;-69
2022/02/18 04:42:30;;;;;;;2.67;1.38;;;4.90;99.90;;;;;;5026207;28;20060;-68
2022/02/18 04:44:56;;;;;;;7.07;1.88;;;5.00;99.90;;;;;;5025952;28;20045;-69
2022/02/18 04:47:21;;;;;;;6.15;1.85;;;4.90;99.90;;;;;;5026263;28;20026;-68
2022/02/18 04:49:47;;;;;;;6.82;1.95;;;4.90;99.90;;;;;;5025888;28;20032;-69
2022/02/18 04:52:18;;;;;;;2.78;1.15;;;4.90;99.90;;;;;;5026243;28;20033;-70
2022/02/18 04:54:44;;;;;;;6.03;1.10;;;4.90;99.90;;;;;;5025606;28;20033;-70
2022/02/18 04:57:11;;;;;;;3.67;1.15;;;4.90;99.90;;;;;;5025758;28;20061;-69
2022/02/18 04:59:36;;;;;;;7.45;1.85;;;4.90;99.90;;;;;;5026081;28;20148;-69
2022/02/18 05:02:03;;;;;;;4.40;1.35;;;4.90;99.90;;;;;;5025563;28;20053;-70
2022/02/18 05:04:28;;;;;;;3.17;0.70;;;4.90;99.90;;;;;;5025586;28;20049;-69
2022/02/18 05:06:54;;;;;;;9.05;1.30;;;4.90;99.90;;;;;;5025847;28;20041;-69
2022/02/18 05:09:20;;;;;;;6.13;0.88;;;4.90;99.90;;;;;;5025701;28;20047;-69
2022/02/18 05:11:45;;;;;;;1.80;1.10;;;5.00;99.90;;;;;;5026220;28;20054;-68
2022/02/18 05:14:12;;;;;;;5.18;1.25;;;4.90;99.90;;;;;;5026165;28;20479;-71
2022/02/18 05:16:38;;;;;;;16.30;1.55;;;5.00;99.90;;;;;;5025412;28;20116;-70
2022/02/18 05:19:06;;;;;;;8.00;1.60;;;5.00;99.90;;;;;;5025850;28;20064;-68
2022/02/18 05:21:31;;;;;;;15.60;1.63;;;5.00;99.90;;;;;;5025656;28;20065;-69
2022/02/18 05:23:57;;;;;;;13.82;1.90;;;5.00;99.90;;;;;;5025228;28;20036;-70
2022/02/18 05:26:23;;;;;;;3.67;1.13;;;5.00;99.90;;;;;;5025567;28;20053;-71
2022/02/18 05:28:48;;;;;;;1.63;1.23;;;5.00;99.90;;;;;;5025625;28;20057;-70
2022/02/18 05:31:14;;;;;;;9.63;1.88;;;5.00;99.90;;;;;;5025136;28;20045;-72
2022/02/18 05:33:40;;;;;;;2.65;1.35;;;5.00;99.90;;;;;;5025778;28;20030;-70
2022/02/18 05:36:05;;;;;;;8.35;1.85;;;5.10;99.90;;;;;;5025425;28;20069;-70
2022/02/18 05:38:31;;;;;;;4.32;1.30;;;5.00;99.90;;;;;;5024938;28;20033;-69
2022/02/18 05:40:56;;;;;;;6.88;2.65;;;5.00;99.90;;;;;;5025467;28;20026;-68
2022/02/18 05:43:25;;;;;;;26.60;2.55;;;5.00;99.90;;;;;;5025281;28;20053;-71
2022/02/18 05:45:51;;;;;;;2.72;1.23;;;5.00;99.90;;;;;;5025471;28;20042;-71
2022/02/18 05:48:17;;;;;;;7.32;1.80;;;5.10;99.90;;;;;;5025788;28;20572;-69
2022/02/18 05:50:43;;;;;;;8.57;2.10;;;5.00;99.90;;;;;;5031069;28;20056;-71
2022/02/18 05:53:09;;;;;;;11.20;3.10;;;5.20;99.90;;;;;;5038012;28;20018;-70
2022/02/18 05:55:34;;;;;;;16.60;3.47;;;5.00;99.90;;;;;;5032114;28;20026;-69
2022/02/18 05:58:00;;;;;;;15.15;3.63;;;5.00;99.90;;;;;;5028511;28;20564;-69
2022/02/18 06:00:26;;;;;;;7.25;2.28;;;5.00;99.90;;;;;;5029664;28;20044;-68
2022/02/18 06:02:51;;;;;;;5.00;3.42;;;4.90;99.90;;;;;;5036535;28;20034;-68
2022/02/18 06:05:17;;;;;;;14.13;2.17;;;5.00;99.90;;;;;;5038362;28;20062;-69
2022/02/18 06:07:44;;;;;;;4.82;2.25;;;5.10;99.90;;;;;;5039406;28;20040;-71
2022/02/18 06:10:11;;;;;;;22.55;2.30;;;4.90;99.90;;;;;;5051642;28;20025;-70
2022/02/18 06:12:36;;;;;;;3.80;1.70;;;4.90;99.90;;;;;;5046982;28;20038;-71
2022/02/18 06:15:02;;;;;;;10.77;2.90;;;4.90;99.90;;;;;;5031779;28;20026;-69
2022/02/18 06:17:27;;;;;;;10.30;2.25;;;4.90;99.90;;;;;;5044051;28;20423;-69
2022/02/18 06:19:53;;;;;;;6.80;1.73;;;5.00;99.90;;;;;;5036007;28;20056;-70
2022/02/18 06:22:19;;;;;;;12.50;2.53;;;4.90;99.90;;;;;;5024626;28;20022;-70
2022/02/18 06:24:44;;;;;;;13.93;2.33;;;4.90;99.90;;;;;;5035859;28;20053;-70
2022/02/18 06:27:10;;;;;;;16.60;2.53;;;4.90;99.90;;;;;;5041138;28;20030;-71
2022/02/18 06:29:37;;;;;;;3.83;1.40;;;5.00;99.90;;;;;;5025931;28;20036;-71
2022/02/18 06:32:07;;;;;;;6.30;1.33;;;4.90;99.90;;;;;;5022788;28;20069;-72
2022/02/18 06:34:33;;;;;;;9.02;1.73;;;4.90;99.90;;;;;;5023346;28;20034;-70
2022/02/18 06:36:58;;;;;;;10.98;1.95;;;4.90;99.90;;;;;;5022896;28;20450;-70
2022/02/18 06:39:24;;;;;;;7.07;2.47;;;4.90;99.90;;;;;;5033477;28;20271;-69
2022/02/18 06:41:51;;;;;;;5.15;2.05;;;4.90;99.90;;;;;;5032253;28;20030;-72
2022/02/18 06:44:17;;;;;;;14.35;2.42;;;4.90;99.90;;;;;;5031913;28;20105;-71
2022/02/18 06:46:43;;;;;;;10.13;2.15;;;4.90;99.90;;;;;;5024171;28;20042;-70
2022/02/18 06:49:09;;;;;;;14.43;2.10;;;4.90;99.90;;;;;;5027771;28;20072;-70
2022/02/18 06:51:37;;;;;;;4.28;2.35;;;5.00;99.90;;;;;;5025119;28;20052;-69
2022/02/18 06:54:03;;;;;;;7.82;1.88;;;5.00;99.90;;;;;;5039624;28;20033;-70
2022/02/18 06:56:29;;;;;;;23.10;4.25;;;5.00;99.90;;;;;;5041586;28;20493;-69
2022/02/18 06:58:54;;;;;;;4.50;1.35;;;5.00;99.90;;;;;;5026980;28;20441;-69
2022/02/18 07:01:20;;;;;;;8.60;2.35;;;5.00;99.90;;;;;;5032687;28;20037;-71
2022/02/18 07:03:48;;;;;;;5.80;2.45;;;5.00;99.90;;;;;;5032350;28;20026;-72
2022/02/18 07:06:15;;;;;;;16.55;3.30;;;5.10;99.90;;;;;;5025447;28;20030;-70
2022/02/18 07:08:41;;;;;;;5.20;1.88;;;5.10;99.90;;;;;;5035078;28;20034;-71
2022/02/18 07:11:06;;;;;;;5.95;1.95;;;5.20;99.90;;;;;;5032365;28;20033;-71
2022/02/18 07:13:35;;;;;;;13.13;1.88;;;5.10;99.90;;;;;;5023551;28;20382;-71
2022/02/18 07:16:01;;;;;;;9.25;1.95;;;5.10;99.90;;;;;;5025783;28;20037;-68
2022/02/18 07:18:27;;;;;;;7.03;2.15;;;5.20;99.90;;;;;;5024637;28;20026;-71
2022/02/18 07:20:53;;;;;;;11.35;1.50;;;5.20;99.90;;;;;;5033304;28;20041;-70
2022/02/18 07:23:23;;;;;;;10.70;2.50;;;5.10;99.90;;;;;;5022010;28;20032;-71
2022/02/18 07:25:56;;;;;;;14.95;2.95;;;5.10;99.90;;;;;;5022405;28;20046;-73
2022/02/18 07:28:23;;;;;;;;;;;5.10;99.90;;;;;;5039666;28;20026;-73
2022/02/18 07:30:49;;;;;;;4.28;2.50;;;5.10;99.90;;;;;;5026175;28;19916;-72
2022/02/18 07:33:14;;;;;;;5.28;2.90;;;5.10;99.90;;;;;;5024231;28;20041;-74
2022/02/18 07:35:40;;;;;;;4.60;1.92;;;5.00;99.90;;;;;;5040739;28;20139;-72
2022/02/18 07:38:06;;;;;;;11.00;2.65;;;5.10;99.90;;;;;;5036271;28;20105;-70
2022/02/18 07:40:32;;;;;;;11.20;2.80;;;5.10;99.90;;;;;;5032088;28;20032;-69
2022/02/18 07:43:01;;;;;;;9.90;3.72;;;5.10;99.90;;;;;;5025713;28;20062;-73
2022/02/18 07:45:27;;;;;;;10.82;3.05;;;5.20;99.90;;;;;;5025660;28;20068;-71
2022/02/18 07:47:57;;;;;;;12.57;2.92;;;5.10;99.90;;;;;;5027264;28;20026;-71
2022/02/18 07:50:24;;;;;;;14.38;3.50;;;5.20;99.90;;;;;;5025498;28;20049;-71
2022/02/18 07:52:52;;;;;;;9.10;3.30;;;5.20;99.90;;;;;;5036401;28;20021;-73
2022/02/18 07:55:19;;;;;;;4.90;2.38;;;5.20;99.90;;;;;;5036510;28;20112;-71
2022/02/18 07:57:46;;;;;;;20.30;4.13;;;5.20;99.90;;;;;;5043257;28;20084;-73
2022/02/18 08:00:13;;;;;;;9.77;2.65;;;5.20;99.90;;;;;;5044770;28;20036;-73
2022/02/18 08:02:41;;;;;;;11.82;3.63;;;5.20;99.90;;;;;;5045582;28;20104;-72
2022/02/18 08:05:07;;;;;;;19.83;2.70;;;5.20;99.90;;;;;;5046738;28;20033;-71
2022/02/18 08:07:33;;;;;;;10.30;2.85;;;5.20;99.90;;;;;;5045195;28;20059;-70
2022/02/18 08:09:59;;;;;;;12.25;4.05;;;5.20;99.90;;;;;;5039175;28;20104;-71
2022/02/18 08:12:24;;;;;;;6.15;3.58;;;5.20;99.90;;;;;;5038841;28;20167;-71
2022/02/18 08:14:50;;;;;;;8.77;3.10;;;5.20;99.90;;;;;;5043362;28;20042;-70
2022/02/18 08:17:15;;;;;;;7.57;3.50;;;5.30;99.90;;;;;;5041378;28;20522;-71
2022/02/18 08:19:43;;;;;;;20.98;3.97;;;5.30;99.90;;;;;;5027381;28;20056;-72
2022/02/18 08:22:09;;;;;;;9.05;3.35;;;5.30;99.90;;;;;;5027037;28;20070;-72
2022/02/18 08:24:35;;;;;;;13.77;3.33;;;5.30;99.90;;;;;;5024304;28;20045;-70
2022/02/18 08:27:01;;;;;;;4.53;1.98;;;5.30;99.90;;;;;;5028280;28;20034;-70
2022/02/18 08:29:31;;;;;;;5.70;2.90;;;5.40;99.90;;;;;;5026577;28;20022;-71
2022/02/18 08:31:57;;;;;;;8.45;4.10;;;5.40;99.90;;;;;;5028578;28;20087;-70
2022/02/18 08:34:23;;;;;;;7.57;3.13;;;5.40;99.90;;;;;;5035332;28;20025;-71
2022/02/18 08:36:49;;;;;;;8.82;2.97;;;5.40;99.90;;;;;;5042518;28;20022;-73
2022/02/18 08:39:22;;;;;;;4.30;2.20;;;5.40;99.90;;;;;;5043801;28;20183;-72
2022/02/18 08:41:47;;;;;;;5.32;3.03;;;5.40;99.90;;;;;;5036633;28;20052;-72
2022/02/18 08:44:17;;;;;;;17.52;3.95;;;5.40;99.90;;;;;;5038225;28;20022;-72
2022/02/18 08:46:49;;;;;;;13.38;3.55;;;5.40;99.90;;;;;;5031751;28;20104;-73
2022/02/18 08:49:24;;;;;;;10.18;3.72;;;5.40;99.90;;;;;;5026068;28;20052;-74
2022/02/18 08:51:51;;;;;;;7.22;2.58;;;5.40;99.90;;;;;;5036968;28;20029;-72
2022/02/18 08:54:16;;;;;;;16.77;3.85;;;5.40;99.90;;;;;;5028870;28;20251;-72
2022/02/18 08:56:51;;;;;;;9.98;2.47;;;5.40;99.90;;;;;;5023732;28;20101;-73
2022/02/18 08:59:17;;;;;;;9.48;3.78;;;5.40;99.90;;;;;;5022834;28;20041;-71
2022/02/18 09:01:43;;;;;;;12.48;4.53;;;5.40;99.90;;;;;;5026057;28;20029;-70
2022/02/18 09:04:09;;;;;;;12.43;3.05;;;5.40;99.90;;;;;;5025697;28;20038;-70
2022/02/18 09:06:35;;;;;;;12.30;2.78;;;5.30;99.90;;;;;;5024388;28;20068;-72
2022/02/18 09:09:46;;;;;;;19.08;2.97;;;5.40;99.90;;;;;;5026092;28;20030;-72
2022/02/18 09:12:15;;;;;;;5.68;2.13;;;5.40;99.90;;;;;;5024191;28;20117;-71
2022/02/18 09:14:41;;;;;;;22.25;3.30;;;5.40;99.90;;;;;;5025180;28;20064;-73
2022/02/18 09:17:07;;;;;;;17.77;3.80;;;5.40;99.90;;;;;;5025382;28;20021;-71
2022/02/18 09:19:33;;;;;;;10.00;2.65;;;5.40;99.90;;;;;;5030568;28;20025;-72
2022/02/18 09:22:05;;;;;;;7.55;2.47;;;5.40;99.90;;;;;;5032189;28;20025;-72
2022/02/18 09:24:37;;;;;;;10.75;3.33;;;5.40;99.90;;;;;;5033338;28;20049;-74
2022/02/18 09:27:03;;;;;;;21.35;3.50;;;5.40;99.90;;;;;;5038171;28;20077;-74
2022/02/18 09:29:36;;;;;;;19.30;3.35;;;5.40;99.90;;;;;;5024266;28;20427;-74
2022/02/18 09:32:04;;;;;;;10.95;3.38;;;5.40;99.90;;;;;;5024846;28;20402;-73
2022/02/18 09:34:31;;;;;;;7.60;2.40;;;5.50;99.90;;;;;;5024929;28;20525;-72
2022/02/18 09:36:57;;;;;;;8.93;2.50;;;5.60;99.90;;;;;;5025373;28;20022;-71
2022/02/18 09:39:23;;;;;;;20.30;2.83;;;5.50;99.90;;;;;;5037142;28;20036;-73
2022/02/18 09:41:49;;;;;;;27.65;2.72;;;5.50;99.90;;;;;;5043750;28;20445;-72
2022/02/18 09:44:17;;;;;;;5.43;2.33;;;5.60;99.90;;;;;;5044922;28;20022;-74
2022/02/18 09:46:45;;;;;;;17.65;3.92;;;5.60;99.90;;;;;;5043988;28;20059;-74
2022/02/18 09:49:12;;;;;;;21.50;4.75;;;5.70;99.90;;;;;;5045033;28;20049;-72
2022/02/18 09:51:39;;;;;;;22.73;4.47;;;5.70;99.90;;;;;;5045232;28;20025;-72
2022/02/18 09:54:06;;;;;;;13.15;5.18;;;5.80;99.90;;;;;;5037195;28;20034;-72
2022/02/18 09:56:34;;;;;;;11.13;3.85;;;5.80;99.90;;;;;;5040800;28;20032;-72
2022/02/18 09:59:07;;;;;;;12.77;3.97;;;5.80;99.90;;;;;;5025326;28;20045;-71
2022/02/18 10:01:33;;;;;;;18.80;4.88;;;5.80;99.90;;;;;;5024717;28;20037;-73
2022/02/18 10:04:00;;;;;;;22.58;5.60;;;5.90;99.90;;;;;;5024909;28;20162;-73
2022/02/18 10:06:30;;;;;;;8.65;2.92;;;5.90;99.90;;;;;;5023715;28;20049;-73
2022/02/18 10:08:58;;;;;;;14.05;2.97;;;6.00;99.90;;;;;;5024426;28;20029;-73
2022/02/18 10:11:24;;;;;;;27.85;4.45;;;6.00;99.90;;;;;;5025380;28;20022;-73
2022/02/18 10:13:53;;;;;;;17.98;3.95;;;6.00;99.90;;;;;;5024713;28;20026;-70
2022/02/18 10:16:24;;;;;;;8.68;2.85;;;6.10;99.90;;;;;;5028610;28;20385;-70
2022/02/18 10:19:01;;;;;;;16.50;3.90;;;6.10;99.90;;;;;;5044042;28;20454;-73
2022/02/18 10:21:34;;;;;;;6.90;2.80;;;6.10;99.90;;;;;;5052095;28;20037;-76
2022/02/18 10:24:14;;;;;;;9.43;3.78;;;6.10;99.90;;;;;;5024069;28;20417;-73
2022/02/18 10:26:50;;;;;;;13.15;4.50;;;6.10;99.90;;;;;;5034663;28;20042;-74
2022/02/18 10:29:25;;;;;;;7.50;3.25;;;6.00;99.90;;;;;;5027637;28;20073;-73
2022/02/18 10:32:11;;;;;;;12.02;2.88;;;6.10;99.90;;;;;;5028850;28;20030;-75
2022/02/18 10:35:10;;;;;;;10.77;3.50;;;6.00;99.90;;;;;;5027819;28;20088;-74
2022/02/18 10:37:36;;;;;;;5.72;2.42;;;6.00;99.90;;;;;;5022042;28;20065;-74
2022/02/18 10:40:10;;;;;;;16.33;4.25;;;6.00;99.90;;;;;;5023322;28;20029;-73
2022/02/18 10:42:37;;;;;;;12.43;2.80;;;6.00;99.90;;;;;;5025380;28;20079;-75
2022/02/18 10:45:11;;;;;;;13.02;4.57;;;6.00;99.90;;;;;;5038412;28;20029;-75
2022/02/18 10:47:38;;;;;;;;;;;6.00;99.90;;;;;;5044837;28;20171;-76
2022/02/18 10:50:25;;;;;;;6.30;2.97;;;6.00;99.90;;;;;;5042918;28;20023;-74
2022/02/18 10:53:19;;;;;;;10.93;3.75;;;6.00;99.90;;;;;;5043463;28;20076;-73
2022/02/18 10:56:01;;;;;;;11.25;3.00;;;6.00;99.90;;;;;;5030445;28;20022;-72
2022/02/18 10:58:31;;;;;;;8.10;3.70;;;6.00;99.90;;;;;;5023140;28;20066;-75
2022/02/18 11:01:04;;;;;;;13.35;3.15;;;6.00;99.90;;;;;;5024071;28;20053;-73
2022/02/18 11:03:30;;;;;;;11.60;3.55;;;6.10;99.90;;;;;;5024009;28;20044;-74
2022/02/18 11:06:11;;;;;;;15.32;2.72;;;6.00;99.90;;;;;;5023854;28;20069;-73
2022/02/18 11:08:36;;;;;;;8.27;3.38;;;6.10;99.90;;;;;;5023755;28;20037;-71
2022/02/18 11:11:10;;;;;;;10.55;4.07;;;6.00;99.90;;;;;;5022271;28;20117;-73
2022/02/18 11:13:37;;;;;;;15.93;2.95;;;6.10;99.90;;;;;;5022362;28;20391;-73
2022/02/18 11:16:04;;;;;;;10.68;3.17;;;6.10;99.90;;;;;;5032297;28;20484;-72
2022/02/18 11:18:30;;;;;;;7.95;3.80;;;6.10;99.90;;;;;;5032483;28;20038;-71
2022/02/18 11:20:58;;;;;;;4.30;1.98;;;6.10;99.90;;;;;;5052930;28;20029;-74
2022/02/18 11:23:23;;;;;;;6.28;2.05;;;6.20;99.90;;;;;;5065967;28;20037;-72
2022/02/18 11:25:50;;;;;;;9.85;2.85;;;6.20;99.90;;;;;;5067153;28;20147;-75
2022/02/18 11:28:24;;;;;;;8.40;3.22;;;6.20;99.90;;;;;;5047698;28;20045;-74
2022/02/18 11:30:51;;;;;;;5.97;2.80;;;6.20;99.90;;;;;;5032957;28;20033;-76
2022/02/18 11:33:45;;;;;;;5.25;2.45;;;6.20;99.90;;;;;;5034867;28;20083;-72
2022/02/18 11:36:22;;;;;;;17.67;2.70;;;6.30;99.90;;;;;;5033622;28;20120;-72
2022/02/18 11:38:53;;;;;;;5.18;2.65;;;6.30;99.90;;;;;;5039513;28;20044;-76
2022/02/18 11:41:46;;;;;;;10.23;3.95;;;6.40;99.90;;;;;;5027002;28;20106;-73
2022/02/18 11:44:14;;;;;;;11.07;2.88;;;6.50;99.90;;;;;;5027477;28;20029;-75
2022/02/18 11:46:42;;;;;;;8.98;3.15;;;6.50;99.90;;;;;;5027452;28;20097;-74
2022/02/18 11:49:08;;;;;;;8.25;3.35;;;6.50;99.90;;;;;;5031250;28;20022;-72
2022/02/18 11:51:45;;;;;;;9.02;3.17;;;6.60;99.90;;;;;;5047031;28;20029;-73
2022/02/18 11:54:29;;;;;;;11.57;3.55;;;6.70;99.90;;;;;;5043350;28;20030;-73
2022/02/18 11:57:00;;;;;;;5.47;1.88;;;6.70;99.90;;;;;;5043240;28;20033;-74
2022/02/18 11:59:53;;;;;;;7.38;2.53;;;6.70;99.90;;;;;;5046042;28;20034;-72
2022/02/18 12:02:33;;;;;;;12.27;3.75;;;6.80;99.90;;;;;;5046827;28;20687;-75
2022/02/18 12:05:08;;;;;;;4.88;1.92;;;6.90;99.90;;;;;;5039110;28;20025;-71
2022/02/18 12:07:36;;;;;;;2.90;1.88;;;6.90;99.90;;;;;;5032936;28;20037;-77
2022/02/18 12:10:08;;;;;;;6.80;2.60;;;6.90;99.90;;;;;;5042134;28;20025;-75
2022/02/18 12:12:39;;;;;;;8.38;2.83;;;7.00;99.90;;;;;;5047163;28;20030;-75
2022/02/18 12:15:29;;;;;;;8.77;2.50;;;7.10;99.90;;;;;;5029806;28;20097;-76
2022/02/18 12:18:03;;;;;;;17.02;3.78;;;7.10;99.90;;;;;;5024845;28;20118;-73
2022/02/18 12:20:30;;;;;;;3.85;1.30;;;7.20;99.90;;;;;;5032835;28;20049;-72
2022/02/18 12:22:58;;;;;;;12.07;3.72;;;7.20;99.90;;;;;;5034028;28;20021;-75
2022/02/18 12:25:26;;;;;;;4.85;2.60;;;7.30;99.90;;;;;;5029171;28;20441;-76
2022/02/18 12:28:18;;;;;;;5.53;2.67;;;7.30;99.90;;;;;;5041594;28;20029;-74
2022/02/18 12:31:06;;;;;;;9.10;2.95;;;7.40;99.90;;;;;;5041692;28;20065;-73
2022/02/18 12:33:32;;;;;;;19.67;4.00;;;7.40;99.90;;;;;;5026450;28;20061;-74
2022/02/18 12:35:58;;;;;;;10.90;2.92;;;7.50;99.90;;;;;;5023718;28;20132;-73
2022/02/18 12:38:24;;;;;;;15.10;2.50;;;7.60;99.90;;;;;;5024541;28;20049;-74
2022/02/18 12:40:50;;;;;;;19.58;4.35;;;7.60;99.90;;;;;;5024909;28;20048;-73
2022/02/18 12:43:18;;;;;;;7.03;3.50;;;7.70;99.90;;;;;;5025860;28;20478;-72
2022/02/18 12:45:53;;;;;;;7.82;2.75;;;7.70;99.90;;;;;;5025523;28;20120;-74
2022/02/18 12:48:34;;;;;;;8.55;3.15;;;7.80;99.90;;;;;;5025087;28;20022;-75
2022/02/18 12:51:09;;;;;;;20.75;4.88;;;7.90;99.90;;;;;;5023522;28;20101;-74
2022/02/18 12:53:36;;;;;;;10.90;4.60;;;7.90;99.90;;;;;;5024050;28;20126;-74
2022/02/18 12:56:15;;;;;;;10.25;3.08;;;8.00;99.90;;;;;;5025405;28;20049;-76
2022/02/18 12:58:53;;;;;;;17.08;3.72;;;8.10;99.90;;;;;;5029648;28;20520;-73